sensor_id;sensor_type;location;lat;lon;timestamp;pressure;altitude;pressure_sealevel;temperature;humidity
65227;BME280;51805;49.012;12.104;2023-02-16T00:01:52;98984.44;;;22.16;43.98
65227;BME280;51805;49.012;12.104;2023-02-16T00:04:19;98981.19;;;22.14;43.91
65227;BME280;51805;49.012;12.104;2023-02-16T00:06:45;98978.50;;;22.14;44.08
65227;BME280;51805;49.012;12.104;2023-02-16T00:09:10;98982.81;;;22.15;43.93
65227;BME280;51805;49.012;12.104;2023-02-16T00:11:35;98975.53;;;22.16;43.99
65227;BME280;51805;49.012;12.104;2023-02-16T00:14:01;98972.00;;;22.15;43.82
65227;BME280;51805;49.012;12.104;2023-02-16T00:16:26;98962.50;;;22.13;43.87
65227;BME280;51805;49.012;12.104;2023-02-16T00:18:52;98970.88;;;22.11;43.98
65227;BME280;51805;49.012;12.104;2023-02-16T00:21:17;98974.88;;;22.09;43.90
65227;BME280;51805;49.012;12.104;2023-02-16T00:23:43;98964.06;;;22.09;44.10
65227;BME280;51805;49.012;12.104;2023-02-16T00:26:15;98963.81;;;22.10;43.92
65227;BME280;51805;49.012;12.104;2023-02-16T00:28:41;98972.50;;;22.12;43.93
65227;BME280;51805;49.012;12.104;2023-02-16T00:31:08;98964.31;;;22.07;43.85
65227;BME280;51805;49.012;12.104;2023-02-16T00:33:38;98965.63;;;22.05;43.96
65227;BME280;51805;49.012;12.104;2023-02-16T00:36:03;98976.72;;;22.03;44.07
65227;BME280;51805;49.012;12.104;2023-02-16T00:38:28;98959.41;;;22.04;44.05
65227;BME280;51805;49.012;12.104;2023-02-16T00:40:54;98957.78;;;22.03;43.99
65227;BME280;51805;49.012;12.104;2023-02-16T00:43:25;98949.59;;;21.98;44.07
65227;BME280;51805;49.012;12.104;2023-02-16T00:45:52;98953.94;;;21.99;44.04
65227;BME280;51805;49.012;12.104;2023-02-16T00:48:17;98957.19;;;22.01;44.01
65227;BME280;51805;49.012;12.104;2023-02-16T00:50:42;98955.31;;;22.02;43.99
65227;BME280;51805;49.012;12.104;2023-02-16T00:53:08;98956.88;;;21.98;44.03
65227;BME280;51805;49.012;12.104;2023-02-16T00:55:33;98953.38;;;21.97;44.03
65227;BME280;51805;49.012;12.104;2023-02-16T01:00:45;98963.03;;;21.93;44.28
65227;BME280;51805;49.012;12.104;2023-02-16T01:03:15;98963.03;;;21.93;43.99
65227;BME280;51805;49.012;12.104;2023-02-16T01:05:41;98960.28;;;21.88;44.21
65227;BME280;51805;49.012;12.104;2023-02-16T01:08:10;98954.88;;;21.88;44.11
65227;BME280;51805;49.012;12.104;2023-02-16T01:10:36;98953.22;;;21.87;44.23
65227;BME280;51805;49.012;12.104;2023-02-16T01:13:02;98956.50;;;21.89;44.12
65227;BME280;51805;49.012;12.104;2023-02-16T01:15:27;98959.78;;;21.91;44.18
65227;BME280;51805;49.012;12.104;2023-02-16T01:17:52;98956.75;;;21.88;44.10
65227;BME280;51805;49.012;12.104;2023-02-16T01:20:19;98955.38;;;21.85;44.28
65227;BME280;51805;49.012;12.104;2023-02-16T01:22:44;98948.31;;;21.84;44.19
65227;BME280;51805;49.012;12.104;2023-02-16T01:25:09;98951.03;;;21.84;44.34
65227;BME280;51805;49.012;12.104;2023-02-16T01:27:35;98951.28;;;21.83;44.29
65227;BME280;51805;49.012;12.104;2023-02-16T01:30:01;98948.56;;;21.83;44.36
65227;BME280;51805;49.012;12.104;2023-02-16T01:32:26;98938.00;;;21.81;44.18
65227;BME280;51805;49.012;12.104;2023-02-16T01:34:51;98947.19;;;21.80;44.21
65227;BME280;51805;49.012;12.104;2023-02-16T01:37:16;98943.09;;;21.78;44.46
65227;BME280;51805;49.012;12.104;2023-02-16T01:39:41;98944.41;;;21.75;44.34
65227;BME280;51805;49.012;12.104;2023-02-16T01:44:51;98939.00;;;21.75;44.44
65227;BME280;51805;49.012;12.104;2023-02-16T01:47:36;98942.53;;;21.76;44.39
65227;BME280;51805;49.012;12.104;2023-02-16T01:50:16;98935.22;;;21.76;44.41
65227;BME280;51805;49.012;12.104;2023-02-16T01:52:43;98936.75;;;21.72;44.27
65227;BME280;51805;49.012;12.104;2023-02-16T01:57:46;98930.47;;;21.67;44.57
65227;BME280;51805;49.012;12.104;2023-02-16T02:02:39;98925.06;;;21.67;44.57
65227;BME280;51805;49.012;12.104;2023-02-16T02:07:49;98918.50;;;21.63;44.45
65227;BME280;51805;49.012;12.104;2023-02-16T02:10:23;98920.91;;;21.59;44.60
65227;BME280;51805;49.012;12.104;2023-02-16T02:12:52;98916.53;;;21.58;44.62
65227;BME280;51805;49.012;12.104;2023-02-16T02:15:21;98907.38;;;21.59;44.54
65227;BME280;51805;49.012;12.104;2023-02-16T02:17:47;98909.84;;;21.61;44.41
65227;BME280;51805;49.012;12.104;2023-02-16T02:20:27;98910.00;;;21.54;44.81
65227;BME280;51805;49.012;12.104;2023-02-16T02:23:14;98909.44;;;21.52;44.88
65227;BME280;51805;49.012;12.104;2023-02-16T02:28:19;98898.63;;;21.52;44.63
65227;BME280;51805;49.012;12.104;2023-02-16T02:33:38;98908.59;;;21.52;44.60
65227;BME280;51805;49.012;12.104;2023-02-16T02:39:10;98895.84;;;21.47;44.82
65227;BME280;51805;49.012;12.104;2023-02-16T02:45:09;98893.13;;;21.47;44.69
65227;BME280;51805;49.012;12.104;2023-02-16T02:47:36;98899.03;;;21.44;44.83
65227;BME280;51805;49.012;12.104;2023-02-16T02:50:02;98899.63;;;21.46;44.75
65227;BME280;51805;49.012;12.104;2023-02-16T02:52:27;98897.16;;;21.44;44.70
65227;BME280;51805;49.012;12.104;2023-02-16T02:54:52;98886.59;;;21.43;44.81
65227;BME280;51805;49.012;12.104;2023-02-16T02:57:21;98894.13;;;21.41;44.98
65227;BME280;51805;49.012;12.104;2023-02-16T02:59:59;98890.38;;;21.42;44.91
65227;BME280;51805;49.012;12.104;2023-02-16T03:02:25;98891.34;;;21.36;44.88
65227;BME280;51805;49.012;12.104;2023-02-16T03:04:52;98895.38;;;21.33;45.03
65227;BME280;51805;49.012;12.104;2023-02-16T03:07:19;98891.34;;;21.36;44.94
65227;BME280;51805;49.012;12.104;2023-02-16T03:09:46;98888.66;;;21.36;45.01
65227;BME280;51805;49.012;12.104;2023-02-16T03:12:12;98890.81;;;21.34;44.89
65227;BME280;51805;49.012;12.104;2023-02-16T03:14:44;98890.88;;;21.39;44.80
65227;BME280;51805;49.012;12.104;2023-02-16T03:17:11;98887.25;;;21.33;44.96
65227;BME280;51805;49.012;12.104;2023-02-16T03:19:41;98882.09;;;21.32;44.91
65227;BME280;51805;49.012;12.104;2023-02-16T03:22:07;98879.06;;;21.28;44.98
65227;BME280;51805;49.012;12.104;2023-02-16T03:24:32;98883.69;;;21.28;45.14
65227;BME280;51805;49.012;12.104;2023-02-16T03:26:57;98884.72;;;21.27;45.01
65227;BME280;51805;49.012;12.104;2023-02-16T03:29:23;98885.81;;;21.26;45.10
65227;BME280;51805;49.012;12.104;2023-02-16T03:31:50;98884.19;;;21.25;44.95
65227;BME280;51805;49.012;12.104;2023-02-16T03:34:17;98885.47;;;21.22;45.07
65227;BME280;51805;49.012;12.104;2023-02-16T03:36:43;98880.91;;;21.23;45.12
65227;BME280;51805;49.012;12.104;2023-02-16T03:39:09;98884.69;;;21.22;45.16
65227;BME280;51805;49.012;12.104;2023-02-16T03:41:41;98888.44;;;21.21;45.19
65227;BME280;51805;49.012;12.104;2023-02-16T03:44:07;98885.19;;;21.19;45.10
65227;BME280;51805;49.012;12.104;2023-02-16T03:46:32;98882.97;;;21.16;45.12
65227;BME280;51805;49.012;12.104;2023-02-16T03:48:57;98883.53;;;21.18;45.15
65227;BME280;51805;49.012;12.104;2023-02-16T03:51:22;98893.78;;;21.16;45.21
65227;BME280;51805;49.012;12.104;2023-02-16T03:53:47;98899.75;;;21.18;45.13
65227;BME280;51805;49.012;12.104;2023-02-16T03:56:13;98893.78;;;21.16;45.24
65227;BME280;51805;49.012;12.104;2023-02-16T03:58:38;98892.38;;;21.13;45.11
65227;BME280;51805;49.012;12.104;2023-02-16T04:01:03;98894.25;;;21.13;45.20
65227;BME280;51805;49.012;12.104;2023-02-16T04:03:28;98903.44;;;21.12;45.09
65227;BME280;51805;49.012;12.104;2023-02-16T04:05:53;98899.09;;;21.11;45.30
65227;BME280;51805;49.012;12.104;2023-02-16T04:08:19;98902.56;;;21.06;45.25
65227;BME280;51805;49.012;12.104;2023-02-16T04:10:44;98905.00;;;21.08;45.33
65227;BME280;51805;49.012;12.104;2023-02-16T04:13:09;98915.00;;;21.07;45.27
65227;BME280;51805;49.012;12.104;2023-02-16T04:15:35;98897.94;;;21.07;45.47
65227;BME280;51805;49.012;12.104;2023-02-16T04:18:00;98900.91;;;21.05;45.23
65227;BME280;51805;49.012;12.104;2023-02-16T04:20:27;98905.50;;;21.05;45.15
65227;BME280;51805;49.012;12.104;2023-02-16T04:22:52;98896.81;;;21.03;45.38
65227;BME280;51805;49.012;12.104;2023-02-16T04:25:17;98904.34;;;21.01;45.36
65227;BME280;51805;49.012;12.104;2023-02-16T04:27:43;98897.31;;;21.00;45.44
65227;BME280;51805;49.012;12.104;2023-02-16T04:30:12;98893.53;;;21.01;45.48
65227;BME280;51805;49.012;12.104;2023-02-16T04:32:38;98889.44;;;20.98;45.51
65227;BME280;51805;49.012;12.104;2023-02-16T04:35:04;98887.59;;;20.99;45.52
65227;BME280;51805;49.012;12.104;2023-02-16T04:37:29;98879.47;;;20.99;45.53
65227;BME280;51805;49.012;12.104;2023-02-16T04:39:54;98879.97;;;20.96;45.39
65227;BME280;51805;49.012;12.104;2023-02-16T04:42:19;98879.13;;;20.95;45.33
65227;BME280;51805;49.012;12.104;2023-02-16T04:44:44;98875.00;;;20.93;45.50
65227;BME280;51805;49.012;12.104;2023-02-16T04:47:09;98882.31;;;20.92;45.45
65227;BME280;51805;49.012;12.104;2023-02-16T04:49:35;98882.56;;;20.91;45.47
65227;BME280;51805;49.012;12.104;2023-02-16T04:52:00;98877.41;;;20.89;45.54
65227;BME280;51805;49.012;12.104;2023-02-16T04:54:25;98876.31;;;20.90;45.49
65227;BME280;51805;49.012;12.104;2023-02-16T04:56:51;98875.50;;;20.90;45.57
65227;BME280;51805;49.012;12.104;2023-02-16T04:59:16;98884.09;;;20.87;45.52
65227;BME280;51805;49.012;12.104;2023-02-16T05:01:41;98877.88;;;20.86;45.54
65227;BME280;51805;49.012;12.104;2023-02-16T05:04:07;98871.41;;;20.87;45.47
65227;BME280;51805;49.012;12.104;2023-02-16T05:06:32;98867.09;;;20.86;45.39
65227;BME280;51805;49.012;12.104;2023-02-16T05:08:57;98868.13;;;20.85;45.62
65227;BME280;51805;49.012;12.104;2023-02-16T05:11:22;98886.47;;;20.83;45.49
65227;BME280;51805;49.012;12.104;2023-02-16T05:13:47;98881.09;;;20.83;45.56
65227;BME280;51805;49.012;12.104;2023-02-16T05:16:13;98885.66;;;20.83;45.51
65227;BME280;51805;49.012;12.104;2023-02-16T05:18:38;98890.22;;;20.82;45.62
65227;BME280;51805;49.012;12.104;2023-02-16T05:21:03;98887.78;;;20.81;45.72
65227;BME280;51805;49.012;12.104;2023-02-16T05:23:28;98894.25;;;20.80;45.71
65227;BME280;51805;49.012;12.104;2023-02-16T05:25:53;98894.00;;;20.81;45.61
65227;BME280;51805;49.012;12.104;2023-02-16T05:28:19;98891.56;;;20.80;45.68
65227;BME280;51805;49.012;12.104;2023-02-16T05:30:44;98892.13;;;20.82;45.63
65227;BME280;51805;49.012;12.104;2023-02-16T05:33:09;98893.75;;;20.83;45.47
65227;BME280;51805;49.012;12.104;2023-02-16T05:35:35;98914.31;;;20.84;45.47
65227;BME280;51805;49.012;12.104;2023-02-16T05:38:00;98908.91;;;20.84;45.35
65227;BME280;51805;49.012;12.104;2023-02-16T05:40:25;98908.41;;;20.87;45.35
65227;BME280;51805;49.012;12.104;2023-02-16T05:42:54;98906.78;;;20.86;45.48
65227;BME280;51805;49.012;12.104;2023-02-16T05:45:19;98902.19;;;20.86;45.29
65227;BME280;51805;49.012;12.104;2023-02-16T05:47:44;98898.19;;;20.89;45.41
65227;BME280;51805;49.012;12.104;2023-02-16T05:50:09;98897.94;;;20.90;45.39
65227;BME280;51805;49.012;12.104;2023-02-16T05:52:35;98898.28;;;20.94;45.26
65227;BME280;51805;49.012;12.104;2023-02-16T05:55:00;98882.84;;;20.94;45.25
65227;BME280;51805;49.012;12.104;2023-02-16T05:57:25;98899.44;;;20.98;45.11
65227;BME280;51805;49.012;12.104;2023-02-16T05:59:50;98907.00;;;20.96;45.35
65227;BME280;51805;49.012;12.104;2023-02-16T06:02:15;98908.63;;;20.97;45.20
65227;BME280;51805;49.012;12.104;2023-02-16T06:04:41;98905.41;;;21.00;45.11
65227;BME280;51805;49.012;12.104;2023-02-16T06:07:06;98914.09;;;21.02;44.97
65227;BME280;51805;49.012;12.104;2023-02-16T06:09:31;98910.91;;;21.05;45.04
65227;BME280;51805;49.012;12.104;2023-02-16T06:11:56;98898.78;;;21.07;44.89
65227;BME280;51805;49.012;12.104;2023-02-16T06:14:21;98921.22;;;21.08;44.95
65227;BME280;51805;49.012;12.104;2023-02-16T06:16:47;98937.44;;;21.08;45.06
65227;BME280;51805;49.012;12.104;2023-02-16T06:19:13;98946.94;;;21.10;44.81
65227;BME280;51805;49.012;12.104;2023-02-16T06:21:39;98949.38;;;21.12;44.75
65227;BME280;51805;49.012;12.104;2023-02-16T06:24:05;98958.88;;;21.14;44.97
65227;BME280;51805;49.012;12.104;2023-02-16T06:26:31;98973.81;;;21.17;44.75
65227;BME280;51805;49.012;12.104;2023-02-16T06:28:56;98967.31;;;21.18;44.74
65227;BME280;51805;49.012;12.104;2023-02-16T06:31:21;98966.28;;;21.19;44.73
65227;BME280;51805;49.012;12.104;2023-02-16T06:33:46;98962.50;;;21.20;44.76
65227;BME280;51805;49.012;12.104;2023-02-16T06:36:12;98964.13;;;21.21;44.58
65227;BME280;51805;49.012;12.104;2023-02-16T06:38:37;98956.03;;;21.21;44.74
65227;BME280;51805;49.012;12.104;2023-02-16T06:41:03;98955.78;;;21.22;44.58
65227;BME280;51805;49.012;12.104;2023-02-16T06:43:28;98958.47;;;21.22;44.62
65227;BME280;51805;49.012;12.104;2023-02-16T06:45:53;98949.06;;;21.25;44.47
65227;BME280;51805;49.012;12.104;2023-02-16T06:48:18;98944.22;;;21.27;44.52
65227;BME280;51805;49.012;12.104;2023-02-16T06:50:44;98939.38;;;21.29;44.58
65227;BME280;51805;49.012;12.104;2023-02-16T06:53:09;98953.16;;;21.27;44.60
65227;BME280;51805;49.012;12.104;2023-02-16T06:55:34;98948.09;;;21.31;44.73
65227;BME280;51805;49.012;12.104;2023-02-16T06:57:59;98957.25;;;21.30;44.47
65227;BME280;51805;49.012;12.104;2023-02-16T07:00:24;98962.72;;;21.35;44.58
65227;BME280;51805;49.012;12.104;2023-02-16T07:02:50;98959.53;;;21.38;44.23
65227;BME280;51805;49.012;12.104;2023-02-16T07:05:15;98956.81;;;21.38;44.43
65227;BME280;51805;49.012;12.104;2023-02-16T07:07:40;98972.81;;;21.39;44.36
65227;BME280;51805;49.012;12.104;2023-02-16T07:10:06;98973.97;;;21.43;44.24
65227;BME280;51805;49.012;12.104;2023-02-16T07:12:31;98978.03;;;21.46;44.28
65227;BME280;51805;49.012;12.104;2023-02-16T07:14:56;98968.84;;;21.47;44.29
65227;BME280;51805;49.012;12.104;2023-02-16T07:17:21;98968.34;;;21.50;44.24
65227;BME280;51805;49.012;12.104;2023-02-16T07:19:46;98970.81;;;21.52;44.10
65227;BME280;51805;49.012;12.104;2023-02-16T07:22:11;98967.84;;;21.53;44.15
65227;BME280;51805;49.012;12.104;2023-02-16T07:24:37;98965.41;;;21.52;44.17
65227;BME280;51805;49.012;12.104;2023-02-16T07:27:02;98966.31;;;21.57;44.15
65227;BME280;51805;49.012;12.104;2023-02-16T07:29:27;98963.34;;;21.59;43.93
65227;BME280;51805;49.012;12.104;2023-02-16T07:31:52;98970.66;;;21.58;44.17
65227;BME280;51805;49.012;12.104;2023-02-16T07:34:17;98965.00;;;21.60;44.11
65227;BME280;51805;49.012;12.104;2023-02-16T07:36:42;98963.19;;;21.65;43.87
65227;BME280;51805;49.012;12.104;2023-02-16T07:39:08;98963.75;;;21.67;43.90
65227;BME280;51805;49.012;12.104;2023-02-16T07:41:33;98967.59;;;21.71;43.87
65227;BME280;51805;49.012;12.104;2023-02-16T07:43:58;98972.09;;;21.66;43.78
65227;BME280;51805;49.012;12.104;2023-02-16T07:46:23;98975.63;;;21.66;44.00
65227;BME280;51805;49.012;12.104;2023-02-16T07:48:48;98971.94;;;21.72;43.74
65227;BME280;51805;49.012;12.104;2023-02-16T07:51:20;98976.50;;;21.72;43.83
65227;BME280;51805;49.012;12.104;2023-02-16T07:53:46;98972.03;;;21.77;43.70
65227;BME280;51805;49.012;12.104;2023-02-16T07:56:17;98969.91;;;21.79;43.66
65227;BME280;51805;49.012;12.104;2023-02-16T07:58:42;98970.16;;;21.78;43.75
65227;BME280;51805;49.012;12.104;2023-02-16T08:01:09;98978.03;;;21.79;43.58
65227;BME280;51805;49.012;12.104;2023-02-16T08:03:34;98977.53;;;21.82;43.54
65227;BME280;51805;49.012;12.104;2023-02-16T08:05:59;98969.41;;;21.82;43.47
65227;BME280;51805;49.012;12.104;2023-02-16T08:08:25;98970.78;;;21.85;43.61
65227;BME280;51805;49.012;12.104;2023-02-16T08:10:50;98978.66;;;21.86;43.54
65227;BME280;51805;49.012;12.104;2023-02-16T08:13:15;98976.53;;;21.88;43.57
65227;BME280;51805;49.012;12.104;2023-02-16T08:15:41;98979.78;;;21.90;43.55
65227;BME280;51805;49.012;12.104;2023-02-16T08:18:06;98976.81;;;21.92;43.55
65227;BME280;51805;49.012;12.104;2023-02-16T08:20:31;98982.00;;;21.93;43.53
65227;BME280;51805;49.012;12.104;2023-02-16T08:22:56;98982.00;;;21.93;43.49
65227;BME280;51805;49.012;12.104;2023-02-16T08:25:21;98983.91;;;21.93;43.45
65227;BME280;51805;49.012;12.104;2023-02-16T08:27:47;98986.66;;;21.98;43.34
65227;BME280;51805;49.012;12.104;2023-02-16T08:30:12;98979.94;;;22.00;43.38
65227;BME280;51805;49.012;12.104;2023-02-16T08:32:38;98981.22;;;21.98;43.38
65227;BME280;51805;49.012;12.104;2023-02-16T08:35:03;98979.94;;;22.00;43.34
65227;BME280;51805;49.012;12.104;2023-02-16T08:37:28;98983.47;;;22.01;43.24
65227;BME280;51805;49.012;12.104;2023-02-16T08:39:54;98988.31;;;21.99;43.44
65227;BME280;51805;49.012;12.104;2023-02-16T08:42:19;98989.19;;;22.04;43.31
65227;BME280;51805;49.012;12.104;2023-02-16T08:44:44;98988.63;;;22.02;43.36
65227;BME280;51805;49.012;12.104;2023-02-16T08:47:09;98995.75;;;22.08;43.33
65227;BME280;51805;49.012;12.104;2023-02-16T08:49:34;98997.94;;;22.11;43.09
65227;BME280;51805;49.012;12.104;2023-02-16T08:51:59;98999.81;;;22.11;43.21
65227;BME280;51805;49.012;12.104;2023-02-16T08:54:25;98990.63;;;22.12;43.22
65227;BME280;51805;49.012;12.104;2023-02-16T08:56:51;98999.56;;;22.12;43.06
65227;BME280;51805;49.012;12.104;2023-02-16T08:59:17;98995.53;;;22.15;43.03
65227;BME280;51805;49.012;12.104;2023-02-16T09:01:43;98982.81;;;22.15;43.19
65227;BME280;51805;49.012;12.104;2023-02-16T09:04:08;98986.09;;;22.17;43.13
65227;BME280;51805;49.012;12.104;2023-02-16T09:06:35;98992.31;;;22.18;43.01
65227;BME280;51805;49.012;12.104;2023-02-16T09:09:00;98998.56;;;22.18;43.03
65227;BME280;51805;49.012;12.104;2023-02-16T09:11:25;98988.56;;;22.19;42.98
65227;BME280;51805;49.012;12.104;2023-02-16T09:13:50;98985.59;;;22.20;43.21
65227;BME280;51805;49.012;12.104;2023-02-16T09:16:20;98988.06;;;22.22;43.08
65227;BME280;51805;49.012;12.104;2023-02-16T09:18:46;98993.22;;;22.23;43.05
65227;BME280;51805;49.012;12.104;2023-02-16T09:21:12;99005.13;;;22.22;43.03
65227;BME280;51805;49.012;12.104;2023-02-16T09:23:38;98991.34;;;22.24;42.95
65227;BME280;51805;49.012;12.104;2023-02-16T09:26:04;98997.03;;;22.27;43.04
65227;BME280;51805;49.012;12.104;2023-02-16T09:28:29;99001.41;;;22.28;42.86
65227;BME280;51805;49.012;12.104;2023-02-16T09:30:54;98999.50;;;22.29;43.02
65227;BME280;51805;49.012;12.104;2023-02-16T09:33:19;99001.94;;;22.30;42.78
65227;BME280;51805;49.012;12.104;2023-02-16T09:35:44;98997.38;;;22.31;42.94
65227;BME280;51805;49.012;12.104;2023-02-16T09:38:09;99005.25;;;22.32;42.99
65227;BME280;51805;49.012;12.104;2023-02-16T09:40:35;99012.28;;;22.33;42.66
65227;BME280;51805;49.012;12.104;2023-02-16T09:43:05;99016.66;;;22.34;42.86
65227;BME280;51805;49.012;12.104;2023-02-16T09:45:37;99013.94;;;22.34;42.80
65227;BME280;51805;49.012;12.104;2023-02-16T09:48:03;99015.56;;;22.35;42.78
65227;BME280;51805;49.012;12.104;2023-02-16T09:50:29;99012.03;;;22.35;42.84
65227;BME280;51805;49.012;12.104;2023-02-16T09:52:58;99010.16;;;22.35;42.92
65227;BME280;51805;49.012;12.104;2023-02-16T09:55:24;99010.97;;;22.36;42.79
65227;BME280;51805;49.012;12.104;2023-02-16T09:57:56;99015.06;;;22.38;42.82
65227;BME280;51805;49.012;12.104;2023-02-16T10:05:31;98998.81;;;22.38;42.75
65227;BME280;51805;49.012;12.104;2023-02-16T10:08:06;98998.56;;;22.40;42.81
65227;BME280;51805;49.012;12.104;2023-02-16T10:10:37;98993.13;;;22.40;42.76
65227;BME280;51805;49.012;12.104;2023-02-16T10:13:25;98988.03;;;22.43;42.72
65227;BME280;51805;49.012;12.104;2023-02-16T10:15:51;98985.34;;;22.43;42.79
65227;BME280;51805;49.012;12.104;2023-02-16T10:20:44;98992.38;;;22.44;42.88
65227;BME280;51805;49.012;12.104;2023-02-16T10:25:51;99000.25;;;22.46;42.80
65227;BME280;51805;49.012;12.104;2023-02-16T10:28:19;98994.81;;;22.46;42.97
65227;BME280;51805;49.012;12.104;2023-02-16T10:30:56;99010.81;;;22.47;42.71
65227;BME280;51805;49.012;12.104;2023-02-16T10:35:51;99008.13;;;22.47;42.77
65227;BME280;51805;49.012;12.104;2023-02-16T10:38:23;99004.88;;;22.45;42.71
65227;BME280;51805;49.012;12.104;2023-02-16T10:41:06;99001.91;;;22.47;42.85
65227;BME280;51805;49.012;12.104;2023-02-16T10:43:38;99000.56;;;22.49;42.86
65227;BME280;51805;49.012;12.104;2023-02-16T10:46:05;98992.22;;;22.51;42.69
65227;BME280;51805;49.012;12.104;2023-02-16T10:48:32;98989.50;;;22.51;42.70
65227;BME280;51805;49.012;12.104;2023-02-16T10:50:59;98986.53;;;22.52;42.72
65227;BME280;51805;49.012;12.104;2023-02-16T10:55:56;98983.84;;;22.52;42.66
65227;BME280;51805;49.012;12.104;2023-02-16T10:58:25;98989.56;;;22.56;42.62
65227;BME280;51805;49.012;12.104;2023-02-16T11:00:53;98987.13;;;22.54;42.68
65227;BME280;51805;49.012;12.104;2023-02-16T11:03:22;98980.63;;;22.55;42.57
65227;BME280;51805;49.012;12.104;2023-02-16T11:05:47;98980.88;;;22.54;42.60
65227;BME280;51805;49.012;12.104;2023-02-16T11:08:13;98972.47;;;22.55;42.57
65227;BME280;51805;49.012;12.104;2023-02-16T11:13:03;98975.19;;;22.55;42.69
65227;BME280;51805;49.012;12.104;2023-02-16T11:15:29;98974.13;;;22.56;42.65
65227;BME280;51805;49.012;12.104;2023-02-16T11:22:50;98954.41;;;22.61;42.58
65227;BME280;51805;49.012;12.104;2023-02-16T11:25:24;98953.06;;;22.63;42.50
65227;BME280;51805;49.012;12.104;2023-02-16T11:27:51;98951.44;;;22.62;42.57
65227;BME280;51805;49.012;12.104;2023-02-16T11:30:18;98951.44;;;22.62;42.55
65227;BME280;51805;49.012;12.104;2023-02-16T11:32:45;98962.28;;;22.62;42.46
65227;BME280;51805;49.012;12.104;2023-02-16T11:35:12;98953.06;;;22.63;42.44
65227;BME280;51805;49.012;12.104;2023-02-16T11:37:38;98953.06;;;22.63;42.38
65227;BME280;51805;49.012;12.104;2023-02-16T11:40:17;98958.81;;;22.67;42.38
65227;BME280;51805;49.012;12.104;2023-02-16T11:42:44;98949.84;;;22.66;42.40
65227;BME280;51805;49.012;12.104;2023-02-16T11:45:20;98951.72;;;22.66;42.49
65227;BME280;51805;49.012;12.104;2023-02-16T11:47:50;98942.22;;;22.63;42.44
65227;BME280;51805;49.012;12.104;2023-02-16T11:50:18;98952.56;;;22.66;42.50
65227;BME280;51805;49.012;12.104;2023-02-16T11:52:45;98937.91;;;22.67;42.50
65227;BME280;51805;49.012;12.104;2023-02-16T11:55:30;98934.16;;;22.68;42.47
65227;BME280;51805;49.012;12.104;2023-02-16T11:57:55;98937.41;;;22.70;42.31
65227;BME280;51805;49.012;12.104;2023-02-16T12:00:36;98935.78;;;22.69;42.41
65227;BME280;51805;49.012;12.104;2023-02-16T12:08:34;98915.72;;;22.70;42.31
65227;BME280;51805;49.012;12.104;2023-02-16T12:18:52;98907.66;;;22.75;42.38
65227;BME280;51805;49.012;12.104;2023-02-16T12:26:19;98905.50;;;22.77;42.24
65227;BME280;51805;49.012;12.104;2023-02-16T12:39:08;98894.66;;;22.77;42.31
65227;BME280;51805;49.012;12.104;2023-02-16T12:41:52;98894.41;;;22.79;42.30
65227;BME280;51805;49.012;12.104;2023-02-16T12:44:24;98884.38;;;22.79;42.30
65227;BME280;51805;49.012;12.104;2023-02-16T12:47:03;98885.44;;;22.78;42.22
65227;BME280;51805;49.012;12.104;2023-02-16T12:49:47;98887.91;;;22.80;42.34
65227;BME280;51805;49.012;12.104;2023-02-16T12:54:54;98880.59;;;22.80;42.23
65227;BME280;51805;49.012;12.104;2023-02-16T12:57:23;98873.78;;;22.78;42.31
65227;BME280;51805;49.012;12.104;2023-02-16T12:59:50;98872.47;;;22.80;42.09
65227;BME280;51805;49.012;12.104;2023-02-16T13:02:21;98864.91;;;22.82;42.19
65227;BME280;51805;49.012;12.104;2023-02-16T13:04:48;98868.66;;;22.81;42.26
65227;BME280;51805;49.012;12.104;2023-02-16T13:09:50;98853.25;;;22.82;42.24
65227;BME280;51805;49.012;12.104;2023-02-16T13:14:42;98854.84;;;22.83;42.23
65227;BME280;51805;49.012;12.104;2023-02-16T13:17:14;98848.38;;;22.84;42.18
65227;BME280;51805;49.012;12.104;2023-02-16T13:19:40;98854.06;;;22.82;42.17
65227;BME280;51805;49.012;12.104;2023-02-16T13:24:35;98845.94;;;22.82;42.17
65227;BME280;51805;49.012;12.104;2023-02-16T13:29:42;98845.66;;;22.84;42.26
65227;BME280;51805;49.012;12.104;2023-02-16T13:45:39;98826.97;;;22.82;42.14
65227;BME280;51805;49.012;12.104;2023-02-16T13:48:12;98826.13;;;22.82;42.22
65227;BME280;51805;49.012;12.104;2023-02-16T13:50:37;98815.03;;;22.83;42.33
65227;BME280;51805;49.012;12.104;2023-02-16T13:53:10;98813.94;;;22.84;42.19
65227;BME280;51805;49.012;12.104;2023-02-16T13:55:39;98813.94;;;22.84;42.22
65227;BME280;51805;49.012;12.104;2023-02-16T14:01:06;98818.84;;;22.87;42.22
65227;BME280;51805;49.012;12.104;2023-02-16T14:05:50;98813.94;;;22.84;42.11
65227;BME280;51805;49.012;12.104;2023-02-16T14:10:54;98811.22;;;22.84;42.23
65227;BME280;51805;49.012;12.104;2023-02-16T14:15:51;98807.72;;;22.84;42.11
65227;BME280;51805;49.012;12.104;2023-02-16T14:18:31;98810.97;;;22.86;42.06
65227;BME280;51805;49.012;12.104;2023-02-16T14:21:03;98812.88;;;22.85;42.17
65227;BME280;51805;49.012;12.104;2023-02-16T14:23:29;98810.97;;;22.86;41.98
65227;BME280;51805;49.012;12.104;2023-02-16T14:26:04;98812.31;;;22.83;42.38
65227;BME280;51805;49.012;12.104;2023-02-16T14:30:55;98803.38;;;22.83;42.09
65227;BME280;51805;49.012;12.104;2023-02-16T14:33:36;98797.69;;;22.84;42.11
65227;BME280;51805;49.012;12.104;2023-02-16T14:38:35;98812.31;;;22.83;42.13
65227;BME280;51805;49.012;12.104;2023-02-16T14:41:02;98812.31;;;22.83;42.15
65227;BME280;51805;49.012;12.104;2023-02-16T14:59:10;98819.88;;;22.81;42.25
65227;BME280;51805;49.012;12.104;2023-02-16T15:01:40;98821.53;;;22.82;42.19
65227;BME280;51805;49.012;12.104;2023-02-16T15:04:05;98819.88;;;22.81;42.15